Time;durP1;ratioP1;P1;durP2;ratioP2;P2;SDS_P1;SDS_P2;PMS_P1;PMS_P2;Temp;Humidity;BMP_temperature;BMP_pressure;BME280_temperature;BME280_humidity;BME280_pressure;Samples;Min_cycle;Max_cycle;Signal;HPM_P1;HPM_P2
2021/01/04 03:46:07;;;;;;;54.38;26.90;;;6.50;69.40;;;;;;5390313;24;20089;-73
2021/01/04 03:48:32;;;;;;;56.88;26.83;;;6.60;69.20;;;;;;4832529;29;20039;-73
2021/01/04 03:50:58;;;;;;;58.47;28.85;;;6.50;69.30;;;;;;4832324;29;20092;-73
2021/01/04 03:53:24;;;;;;;60.83;27.67;;;6.60;69.30;;;;;;4831000;29;20034;-74
2021/01/04 03:55:50;;;;;;;57.97;27.83;;;6.50;69.40;;;;;;4832392;29;20131;-73
2021/01/04 03:58:16;;;;;;;55.90;28.85;;;6.60;69.30;;;;;;4833070;29;20090;-73
2021/01/04 04:00:42;;;;;;;54.85;27.25;;;6.60;69.20;;;;;;4832070;29;20022;-74
2021/01/04 04:03:08;;;;;;;61.72;30.23;;;6.70;69.10;;;;;;4836183;29;20212;-73
2021/01/04 04:05:34;;;;;;;58.70;28.10;;;6.70;68.90;;;;;;4834897;29;20042;-74
2021/01/04 04:08:01;;;;;;;62.80;29.98;;;6.60;69.30;;;;;;4848058;29;20056;-73
2021/01/04 04:10:28;;;;;;;63.35;30.48;;;6.60;69.40;;;;;;4853058;29;20022;-74
2021/01/04 04:12:55;;;;;;;60.50;30.35;;;6.60;69.80;;;;;;4853540;29;20021;-73
2021/01/04 04:15:20;;;;;;;;;;;6.60;70.00;;;;;;4852946;29;20352;-73
2021/01/04 04:17:47;;;;;;;66.80;28.40;;;6.50;70.30;;;;;;4836053;29;19950;-73
2021/01/04 04:20:23;;;;;;;63.85;29.75;;;6.50;70.60;;;;;;4834773;29;20190;-74
2021/01/04 04:22:50;;;;;;;63.08;30.38;;;6.50;70.80;;;;;;4835855;29;20079;-73
2021/01/04 04:25:18;;;;;;;62.50;29.55;;;6.60;70.90;;;;;;4835640;29;20147;-74
2021/01/04 04:27:44;;;;;;;62.38;30.40;;;6.50;71.00;;;;;;4834561;29;20075;-74
2021/01/04 04:30:13;;;;;;;66.60;30.67;;;6.60;70.90;;;;;;4835619;29;20236;-74
2021/01/04 04:32:39;;;;;;;68.35;31.42;;;6.60;70.90;;;;;;4834493;29;20030;-73
2021/01/04 04:35:06;;;;;;;64.32;30.67;;;6.70;70.90;;;;;;4835675;29;20033;-73
2021/01/04 04:37:32;;;;;;;64.95;31.58;;;6.70;70.80;;;;;;4834672;29;20046;-73
2021/01/04 04:39:58;;;;;;;74.25;32.10;;;6.60;70.90;;;;;;4835443;29;20054;-73
2021/01/04 04:42:23;;;;;;;66.88;30.70;;;6.60;71.30;;;;;;4835287;29;20147;-73
2021/01/04 04:45:00;;;;;;;67.80;31.75;;;6.60;71.30;;;;;;4835298;29;20030;-72
2021/01/04 04:47:56;;;;;;;91.70;42.15;;;6.60;71.20;;;;;;4834907;29;20137;-72
2021/01/04 04:50:57;;;;;;;79.25;35.92;;;6.50;71.50;;;;;;4835383;29;20030;-73
2021/01/04 04:53:41;;;;;;;59.85;29.83;;;6.50;71.70;;;;;;4797258;30;20114;-73
2021/01/04 04:56:26;;;;;;;70.65;32.05;;;6.50;71.50;;;;;;4797254;30;20050;-73
2021/01/04 04:59:19;;;;;;;62.53;29.48;;;6.50;71.80;;;;;;4782202;30;20070;-73
2021/01/04 05:02:02;;;;;;;67.03;32.95;;;6.60;71.80;;;;;;4781656;30;20043;-73
2021/01/04 05:04:42;;;;;;;66.70;31.00;;;6.60;71.60;;;;;;4796981;29;20335;-74
2021/01/04 05:07:22;;;;;;;74.10;33.70;;;6.50;72.00;;;;;;4799853;29;20031;-73
2021/01/04 05:10:00;;;;;;;67.43;33.22;;;6.50;72.40;;;;;;4814677;29;20030;-73
2021/01/04 05:12:28;;;;;;;69.32;32.70;;;6.40;73.50;;;;;;4784043;29;20303;-73
2021/01/04 05:15:00;;;;;;;76.90;33.72;;;6.50;72.90;;;;;;4799993;29;20038;-73
2021/01/04 05:17:41;;;;;;;75.50;33.17;;;6.50;73.00;;;;;;4796775;30;20043;-74
2021/01/04 05:20:29;;;;;;;68.93;33.17;;;6.40;73.30;;;;;;4780567;30;20062;-74
2021/01/04 05:23:17;;;;;;;69.07;33.28;;;6.30;73.30;;;;;;4764082;30;20073;-73
2021/01/04 05:26:04;;;;;;;67.00;31.30;;;6.30;73.30;;;;;;4778563;30;20083;-74
2021/01/04 05:28:38;;;;;;;68.18;32.08;;;6.30;73.30;;;;;;4778566;30;20043;-74
2021/01/04 05:31:42;;;;;;;69.63;34.58;;;6.30;73.30;;;;;;4811098;29;20039;-73
2021/01/04 05:34:25;;;;;;;63.97;31.42;;;6.40;73.30;;;;;;4815741;29;20037;-74
2021/01/04 05:37:23;;;;;;;66.82;31.40;;;6.30;73.30;;;;;;4816538;29;20116;-73
2021/01/04 05:40:11;;;;;;;82.57;36.70;;;6.40;73.40;;;;;;4815608;29;20326;-73
2021/01/04 05:42:55;;;;;;;69.25;32.33;;;6.40;73.00;;;;;;4816419;29;20375;-73
2021/01/04 05:45:45;;;;;;;66.97;33.22;;;6.40;73.50;;;;;;4816830;29;20126;-73
2021/01/04 05:48:27;;;;;;;67.95;32.33;;;6.30;73.30;;;;;;4833524;29;20034;-73
2021/01/04 05:51:05;;;;;;;66.68;33.42;;;6.30;74.10;;;;;;4834626;29;20049;-73
2021/01/04 05:53:31;;;;;;;71.40;34.40;;;6.30;73.60;;;;;;4834589;29;20070;-73
2021/01/04 05:55:58;;;;;;;70.00;33.00;;;6.30;73.60;;;;;;4833173;29;20034;-73
2021/01/04 05:58:30;;;;;;;68.85;33.30;;;6.20;74.00;;;;;;4833209;29;20074;-73
2021/01/04 06:01:10;;;;;;;69.35;34.00;;;6.20;74.10;;;;;;4836595;29;20041;-72
2021/01/04 06:03:36;;;;;;;67.30;34.88;;;6.20;74.10;;;;;;4840735;29;20055;-73
2021/01/04 06:06:09;;;;;;;70.25;34.95;;;6.30;74.30;;;;;;4825278;29;20034;-73
2021/01/04 06:08:35;;;;;;;69.25;34.42;;;6.30;74.50;;;;;;4839741;29;20018;-74
2021/01/04 06:11:08;;;;;;;73.18;34.22;;;6.40;74.20;;;;;;4842070;29;20022;-74
2021/01/04 06:13:40;;;;;;;72.72;34.25;;;6.40;74.20;;;;;;4843492;29;20022;-73
2021/01/04 06:16:16;;;;;;;78.97;33.78;;;6.50;74.00;;;;;;4842409;29;20309;-73
2021/01/04 06:18:48;;;;;;;73.70;35.38;;;6.50;73.90;;;;;;4839647;29;20022;-73
2021/01/04 06:21:52;;;;;;;70.57;33.88;;;6.30;74.40;;;;;;4843370;29;20030;-74
2021/01/04 06:24:33;;;;;;;79.00;33.40;;;6.40;74.80;;;;;;4840247;29;20321;-73
2021/01/04 06:27:07;;;;;;;68.68;33.63;;;6.30;74.40;;;;;;4842775;29;20083;-74
2021/01/04 06:29:51;;;;;;;66.20;32.25;;;6.40;74.20;;;;;;4841889;29;20021;-74
2021/01/04 06:32:32;;;;;;;64.72;32.83;;;6.40;74.20;;;;;;4843207;29;20057;-74
2021/01/04 06:35:16;;;;;;;65.05;32.53;;;6.40;74.10;;;;;;4844378;29;20034;-74
2021/01/04 06:37:42;;;;;;;72.22;33.55;;;6.40;74.00;;;;;;4838368;29;20213;-73
2021/01/04 06:40:34;;;;;;;61.70;31.60;;;6.30;74.10;;;;;;4841228;29;20022;-73
2021/01/04 06:43:27;;;;;;;69.05;33.55;;;6.20;74.90;;;;;;4829153;29;20034;-73
2021/01/04 06:46:28;;;;;;;67.93;32.75;;;6.10;75.20;;;;;;4839039;29;20045;-73
2021/01/04 06:49:18;;;;;;;68.88;34.13;;;6.10;75.60;;;;;;4839331;29;20030;-74
2021/01/04 06:52:03;;;;;;;73.25;33.70;;;6.20;75.70;;;;;;4839401;29;20018;-74
2021/01/04 06:54:35;;;;;;;71.15;35.28;;;6.20;75.50;;;;;;4845557;29;20330;-73
2021/01/04 06:57:19;;;;;;;68.38;33.58;;;6.20;75.60;;;;;;4839716;29;20029;-73
2021/01/04 07:00:07;;;;;;;69.32;32.38;;;6.30;75.70;;;;;;4838740;29;20374;-74
2021/01/04 07:03:20;;;;;;;76.05;33.83;;;6.30;75.30;;;;;;4838812;29;20359;-74
2021/01/04 07:05:58;;;;;;;68.63;32.65;;;6.30;75.60;;;;;;4836482;29;20033;-74
2021/01/04 07:08:57;;;;;;;65.93;32.60;;;6.30;75.70;;;;;;4844712;29;20093;-74
2021/01/04 07:11:47;;;;;;;65.82;33.08;;;6.20;75.50;;;;;;4838980;29;20053;-74
2021/01/04 07:14:49;;;;;;;75.22;36.13;;;6.20;75.70;;;;;;4830627;29;20102;-73
2021/01/04 07:17:51;;;;;;;69.15;34.78;;;6.20;76.20;;;;;;4833302;29;20042;-73
2021/01/04 07:20:42;;;;;;;70.32;33.15;;;6.20;76.30;;;;;;4832154;29;20048;-73
2021/01/04 07:23:13;;;;;;;72.70;35.92;;;6.20;76.10;;;;;;4833198;29;20070;-74
2021/01/04 07:26:01;;;;;;;67.90;34.08;;;6.20;76.20;;;;;;4832172;29;20030;-74
2021/01/04 07:28:30;;;;;;;68.50;34.13;;;6.20;76.60;;;;;;4831889;29;20087;-74
2021/01/04 07:31:14;;;;;;;66.53;33.53;;;6.20;76.50;;;;;;4832401;29;20041;-74
2021/01/04 07:34:06;;;;;;;70.15;34.97;;;6.10;76.50;;;;;;4816518;29;20030;-74
2021/01/04 07:36:43;;;;;;;72.95;36.35;;;6.20;76.50;;;;;;4828436;29;20269;-73
2021/01/04 07:39:31;;;;;;;72.00;32.70;;;6.10;76.50;;;;;;4815154;29;20038;-73
2021/01/04 07:42:17;;;;;;;62.85;32.55;;;6.20;76.20;;;;;;4832689;29;20075;-74
2021/01/04 07:44:48;;;;;;;69.03;32.75;;;6.30;75.80;;;;;;4834854;29;20062;-74
2021/01/04 07:47:39;;;;;;;68.13;34.55;;;6.10;75.60;;;;;;4841267;29;20042;-75
2021/01/04 07:50:36;;;;;;;70.55;32.80;;;6.20;76.10;;;;;;4840250;29;20026;-74
2021/01/04 07:53:25;;;;;;;66.90;34.95;;;6.20;75.70;;;;;;4843870;29;20049;-74
2021/01/04 07:56:09;;;;;;;69.80;33.38;;;6.10;75.80;;;;;;4840752;29;20026;-74
2021/01/04 07:58:56;;;;;;;76.35;35.45;;;6.00;76.10;;;;;;4844596;29;20073;-74
2021/01/04 08:01:49;;;;;;;73.55;33.83;;;6.10;76.10;;;;;;4843894;29;20029;-74
2021/01/04 08:04:33;;;;;;;66.03;32.85;;;6.10;76.20;;;;;;4844985;29;20022;-74
2021/01/04 08:07:02;;;;;;;70.93;33.35;;;6.10;75.80;;;;;;4844103;29;20042;-74
2021/01/04 08:09:56;;;;;;;67.55;33.20;;;6.10;75.80;;;;;;4841049;29;20229;-73
2021/01/04 08:12:43;;;;;;;67.22;34.03;;;6.10;75.60;;;;;;4834144;29;20064;-74
2021/01/04 08:15:31;;;;;;;75.70;33.90;;;6.10;75.60;;;;;;4841962;29;20089;-74
2021/01/04 08:18:05;;;;;;;67.15;32.70;;;6.10;76.00;;;;;;4816315;29;20027;-74
2021/01/04 08:20:32;;;;;;;62.17;31.92;;;6.00;76.50;;;;;;4846263;29;20289;-73
2021/01/04 08:23:11;;;;;;;71.45;35.88;;;5.90;76.90;;;;;;4854129;29;20029;-74
2021/01/04 08:26:01;;;;;;;63.47;31.38;;;6.10;76.70;;;;;;4845263;29;20098;-74
2021/01/04 08:29:03;;;;;;;69.47;33.70;;;6.10;76.20;;;;;;4825402;29;20286;-73
2021/01/04 08:31:37;;;;;;;64.95;33.70;;;6.00;76.50;;;;;;4845705;29;20093;-74
2021/01/04 08:34:06;;;;;;;73.75;33.28;;;6.10;76.60;;;;;;4842447;29;20026;-74
2021/01/04 08:36:52;;;;;;;71.38;33.85;;;6.10;76.50;;;;;;4841980;29;20062;-73
2021/01/04 08:39:20;;;;;;;67.30;33.55;;;6.10;76.00;;;;;;4845265;29;20049;-74
2021/01/04 08:42:04;;;;;;;70.85;32.63;;;6.20;75.80;;;;;;4847159;29;20026;-74
2021/01/04 08:44:32;;;;;;;68.45;34.53;;;6.20;75.60;;;;;;4826233;29;20030;-74
2021/01/04 08:47:26;;;;;;;65.93;32.65;;;6.30;75.50;;;;;;4823826;29;20074;-74
2021/01/04 08:50:04;;;;;;;62.15;31.63;;;6.40;75.10;;;;;;4838028;29;20035;-74
2021/01/04 08:52:53;;;;;;;64.38;30.95;;;6.40;74.70;;;;;;4818677;29;20282;-74
2021/01/04 08:55:37;;;;;;;61.50;33.85;;;6.40;74.80;;;;;;4834007;29;20083;-74
2021/01/04 08:58:42;;;;;;;67.20;33.35;;;6.60;74.40;;;;;;4818952;29;20411;-74
2021/01/04 09:01:20;;;;;;;64.07;33.30;;;6.60;74.10;;;;;;4834171;29;20097;-74
2021/01/04 09:03:50;;;;;;;64.35;31.40;;;6.60;73.70;;;;;;4833876;29;20105;-74
2021/01/04 09:06:27;;;;;;;71.43;33.13;;;6.60;73.60;;;;;;4833971;29;20381;-74
2021/01/04 09:09:21;;;;;;;66.82;32.47;;;6.50;73.80;;;;;;4815886;29;20030;-74
2021/01/04 09:11:56;;;;;;;79.93;37.85;;;6.60;73.80;;;;;;4764316;30;20406;-74
2021/01/04 09:14:48;;;;;;;75.88;37.20;;;6.70;73.90;;;;;;4764449;30;20071;-74
2021/01/04 09:17:22;;;;;;;83.10;41.95;;;6.80;73.70;;;;;;4793846;30;20307;-75
2021/01/04 09:20:00;;;;;;;79.63;37.83;;;6.90;73.20;;;;;;4796898;30;20052;-75
2021/01/04 09:22:26;;;;;;;73.50;35.22;;;6.90;73.10;;;;;;4796342;30;20163;-75
2021/01/04 09:24:52;;;;;;;63.00;31.75;;;6.90;72.50;;;;;;4799396;29;20042;-75
2021/01/04 09:27:27;;;;;;;64.00;31.05;;;6.80;72.60;;;;;;4808380;29;20335;-75
2021/01/04 09:29:57;;;;;;;68.88;31.83;;;6.80;73.00;;;;;;4793080;29;20099;-75
2021/01/04 09:32:31;;;;;;;67.80;32.30;;;6.90;73.00;;;;;;4797038;29;20030;-78
2021/01/04 09:34:57;;;;;;;65.38;32.85;;;6.80;73.10;;;;;;4814424;29;20051;-78
2021/01/04 09:37:25;;;;;;;67.68;33.45;;;6.80;73.90;;;;;;4784015;29;20224;-78
2021/01/04 09:39:58;;;;;;;72.82;33.75;;;6.80;74.30;;;;;;4771875;30;20050;-78
2021/01/04 09:42:26;;;;;;;73.38;34.03;;;6.80;74.40;;;;;;4782495;30;20047;-77
2021/01/04 09:44:53;;;;;;;64.40;32.42;;;6.90;74.80;;;;;;4796968;30;20102;-79
2021/01/04 09:47:58;;;;;;;70.18;31.73;;;6.90;74.90;;;;;;4795892;30;20067;-78
2021/01/04 09:50:51;;;;;;;72.00;34.42;;;6.90;74.70;;;;;;4815040;29;20110;-77
2021/01/04 09:53:31;;;;;;;73.13;33.72;;;6.90;74.70;;;;;;4815280;29;20062;-77
2021/01/04 09:56:03;;;;;;;70.63;32.05;;;7.00;74.90;;;;;;4807799;29;20211;-77
2021/01/04 09:58:29;;;;;;;66.65;31.30;;;7.00;74.90;;;;;;4815976;29;20030;-78
2021/01/04 10:01:13;;;;;;;75.23;36.20;;;7.00;74.90;;;;;;4804938;29;20035;-77
2021/01/04 10:03:39;;;;;;;72.82;33.08;;;7.00;74.70;;;;;;4811280;29;20226;-77
2021/01/04 10:06:08;;;;;;;66.75;30.98;;;7.00;75.00;;;;;;4831859;29;20033;-77
2021/01/04 10:08:36;;;;;;;71.95;33.40;;;6.90;75.30;;;;;;4828473;29;20049;-77
2021/01/04 10:11:06;;;;;;;74.40;32.63;;;6.90;75.10;;;;;;4824361;29;20039;-77
2021/01/04 10:13:35;;;;;;;67.95;30.25;;;6.90;75.00;;;;;;4798685;29;20109;-77
2021/01/04 10:16:04;;;;;;;69.25;31.83;;;6.80;76.00;;;;;;4815653;29;20364;-75
2021/01/04 10:18:32;;;;;;;72.18;30.90;;;6.70;75.90;;;;;;4815712;29;20329;-75
2021/01/04 10:20:58;;;;;;;70.97;33.78;;;6.70;76.10;;;;;;4815590;29;20030;-75
2021/01/04 10:23:39;;;;;;;72.32;31.83;;;6.70;76.40;;;;;;4814411;29;20134;-75
2021/01/04 10:26:09;;;;;;;79.18;35.28;;;6.70;76.80;;;;;;4814942;29;20101;-77
2021/01/04 10:28:37;;;;;;;71.80;31.98;;;6.80;77.10;;;;;;4818150;29;20038;-77
2021/01/04 10:31:17;;;;;;;79.97;34.55;;;6.80;76.90;;;;;;4815684;29;20090;-77
2021/01/04 10:33:42;;;;;;;85.18;35.45;;;6.80;77.30;;;;;;4799686;29;20054;-77
2021/01/04 10:36:14;;;;;;;79.57;35.20;;;6.90;77.10;;;;;;4814808;29;20262;-77
2021/01/04 10:39:04;;;;;;;75.57;33.13;;;6.90;77.00;;;;;;4814346;29;20035;-77
2021/01/04 10:41:32;;;;;;;73.32;33.38;;;6.80;77.30;;;;;;4810723;29;20257;-77
2021/01/04 10:44:10;;;;;;;74.63;33.15;;;6.90;77.40;;;;;;4797462;29;20035;-76
2021/01/04 10:46:40;;;;;;;72.72;33.83;;;6.80;77.60;;;;;;4817423;29;20121;-77
2021/01/04 10:49:12;;;;;;;72.90;33.30;;;6.80;77.60;;;;;;4832797;29;20026;-77
2021/01/04 10:51:47;;;;;;;82.55;33.88;;;6.80;77.50;;;;;;4832569;29;20033;-77
2021/01/04 10:54:17;;;;;;;67.05;31.30;;;6.80;77.80;;;;;;4816739;29;20035;-76
2021/01/04 10:57:07;;;;;;;69.93;31.75;;;6.80;77.80;;;;;;4833448;29;20034;-76
2021/01/04 10:59:36;;;;;;;62.80;29.25;;;6.80;77.80;;;;;;4766399;30;20118;-76
2021/01/04 11:02:03;;;;;;;72.72;31.85;;;6.80;78.10;;;;;;4785205;30;20255;-76
2021/01/04 11:04:29;;;;;;;71.82;31.50;;;6.80;78.00;;;;;;4795195;29;20068;-76
2021/01/04 11:07:03;;;;;;;73.10;31.65;;;6.90;78.20;;;;;;4798953;29;20034;-76
2021/01/04 11:09:38;;;;;;;64.53;30.77;;;6.90;78.30;;;;;;4777063;30;20355;-76
2021/01/04 11:12:13;;;;;;;64.72;30.17;;;6.90;78.30;;;;;;4785076;30;20272;-76
2021/01/04 11:14:51;;;;;;;71.65;30.63;;;7.00;78.00;;;;;;4783591;30;20078;-76
2021/01/04 11:17:19;;;;;;;67.25;29.77;;;7.00;77.70;;;;;;4790032;29;20127;-76
2021/01/04 11:19:45;;;;;;;69.82;30.70;;;7.00;78.00;;;;;;4780904;30;20042;-75
2021/01/04 11:22:19;;;;;;;66.57;29.77;;;7.00;78.10;;;;;;4772151;30;20050;-75
2021/01/04 11:24:45;;;;;;;66.50;30.23;;;6.90;78.00;;;;;;4783060;30;20056;-75
2021/01/04 11:27:12;;;;;;;72.22;30.48;;;6.90;77.90;;;;;;4772375;30;20064;-75
2021/01/04 11:29:39;;;;;;;67.35;31.45;;;6.90;77.40;;;;;;4765696;30;20095;-75
2021/01/04 11:32:06;;;;;;;68.28;30.08;;;6.80;77.80;;;;;;4780264;30;20031;-75
2021/01/04 11:34:32;;;;;;;60.47;29.58;;;6.80;78.00;;;;;;4780409;30;20043;-75
2021/01/04 11:36:57;;;;;;;67.22;29.40;;;6.80;77.70;;;;;;4785123;29;20039;-75
2021/01/04 11:39:23;;;;;;;62.08;30.35;;;6.80;77.30;;;;;;4818039;29;20094;-75
2021/01/04 11:41:49;;;;;;;62.35;28.35;;;6.80;77.70;;;;;;4806760;29;20034;-75
2021/01/04 11:44:15;;;;;;;62.73;30.13;;;6.90;77.60;;;;;;4834895;29;20034;-74
2021/01/04 11:46:41;;;;;;;70.85;30.33;;;6.90;77.50;;;;;;4835543;29;20257;-75
2021/01/04 11:49:07;;;;;;;69.22;30.13;;;6.90;77.70;;;;;;4836019;29;20102;-75
2021/01/04 11:51:32;;;;;;;58.13;29.70;;;7.00;77.60;;;;;;4829037;29;20334;-75
2021/01/04 11:53:58;;;;;;;60.60;28.95;;;7.00;77.30;;;;;;4836047;29;20057;-75
2021/01/04 11:56:28;;;;;;;58.50;28.88;;;7.10;77.40;;;;;;4835403;29;20058;-75
2021/01/04 11:58:55;;;;;;;62.58;29.90;;;7.10;77.10;;;;;;4834822;29;20065;-75
2021/01/04 12:01:21;;;;;;;62.80;29.50;;;7.10;77.20;;;;;;4834458;29;20057;-74
2021/01/04 12:03:47;;;;;;;67.13;30.33;;;7.20;77.20;;;;;;4834369;29;20034;-75
2021/01/04 12:06:13;;;;;;;70.70;30.38;;;7.30;76.70;;;;;;4835682;29;20034;-75
2021/01/04 12:08:39;;;;;;;61.92;30.15;;;7.30;76.90;;;;;;4850375;29;20119;-76
2021/01/04 12:11:06;;;;;;;58.20;29.10;;;7.40;76.90;;;;;;4839774;29;20041;-75
2021/01/04 12:13:32;;;;;;;69.03;29.33;;;7.40;76.30;;;;;;4835737;29;20061;-75
2021/01/04 12:15:57;;;;;;;64.63;29.63;;;7.30;76.00;;;;;;4835662;29;20330;-75
2021/01/04 12:18:23;;;;;;;60.67;30.02;;;7.20;75.70;;;;;;4816168;29;20407;-75
2021/01/04 12:20:49;;;;;;;62.50;31.75;;;7.20;75.90;;;;;;4829169;29;20030;-75
2021/01/04 12:23:15;;;;;;;56.85;28.05;;;7.30;76.20;;;;;;4819993;29;20030;-75
2021/01/04 12:25:42;;;;;;;62.97;29.30;;;7.30;75.90;;;;;;4821773;29;20050;-75
2021/01/04 12:28:08;;;;;;;60.53;30.37;;;7.30;75.90;;;;;;4835481;29;20036;-75
2021/01/04 12:30:34;;;;;;;63.22;29.17;;;7.40;76.00;;;;;;4847325;29;20037;-76
2021/01/04 12:33:00;;;;;;;65.07;29.33;;;7.40;75.90;;;;;;4836545;29;20053;-76
2021/01/04 12:35:27;;;;;;;60.88;30.48;;;7.50;76.00;;;;;;4822952;29;20026;-75
2021/01/04 12:37:54;;;;;;;60.90;29.65;;;7.50;75.60;;;;;;4825871;29;20091;-75
2021/01/04 12:40:25;;;;;;;59.58;29.55;;;7.60;75.10;;;;;;4836772;29;20023;-75
2021/01/04 12:42:51;;;;;;;64.25;29.92;;;7.50;75.00;;;;;;4823934;29;20042;-75
2021/01/04 12:45:17;;;;;;;68.20;30.95;;;7.60;75.40;;;;;;4834674;29;20563;-75
2021/01/04 12:47:43;;;;;;;58.30;29.15;;;7.60;75.00;;;;;;4833775;29;20061;-75
2021/01/04 12:50:09;;;;;;;67.10;30.73;;;7.50;74.90;;;;;;4833582;29;20026;-75
2021/01/04 12:52:35;;;;;;;62.60;30.08;;;7.40;74.80;;;;;;4827594;29;20351;-75
2021/01/04 12:55:01;;;;;;;61.88;29.55;;;7.50;75.20;;;;;;4833742;29;20110;-75
2021/01/04 12:57:26;;;;;;;65.22;29.50;;;7.40;75.00;;;;;;4825653;29;20196;-75
2021/01/04 12:59:53;;;;;;;54.58;28.85;;;7.40;75.00;;;;;;4832915;29;20054;-75
2021/01/04 13:02:18;;;;;;;63.63;29.90;;;7.50;74.50;;;;;;4833502;29;20105;-75
2021/01/04 13:04:45;;;;;;;58.80;28.88;;;7.50;75.00;;;;;;4834621;29;20046;-75
2021/01/04 13:07:12;;;;;;;61.78;29.88;;;7.50;74.70;;;;;;4839299;29;20050;-75
2021/01/04 13:09:39;;;;;;;65.28;30.65;;;7.50;75.10;;;;;;4847927;29;20279;-75
2021/01/04 13:12:07;;;;;;;58.05;27.95;;;7.40;75.30;;;;;;4844575;29;20061;-75
2021/01/04 13:14:33;;;;;;;67.97;31.60;;;7.40;75.20;;;;;;4839960;29;20030;-75
2021/01/04 13:16:59;;;;;;;68.32;31.05;;;7.40;75.30;;;;;;4840543;29;20090;-75
2021/01/04 13:19:30;;;;;;;65.72;30.33;;;7.50;75.60;;;;;;4850090;29;20049;-75
2021/01/04 13:22:00;;;;;;;65.07;30.17;;;7.40;75.40;;;;;;4840412;29;20324;-76
2021/01/04 13:24:26;;;;;;;72.82;33.08;;;7.30;75.90;;;;;;4834043;29;20038;-76
2021/01/04 13:26:54;;;;;;;69.30;31.90;;;7.40;76.00;;;;;;4832242;29;20038;-76
2021/01/04 13:29:26;;;;;;;74.68;34.17;;;7.50;76.00;;;;;;4833180;29;20034;-77
2021/01/04 13:32:04;;;;;;;71.22;32.05;;;7.50;75.80;;;;;;4833753;29;20042;-76
2021/01/04 13:34:30;;;;;;;79.40;33.03;;;7.50;75.60;;;;;;4833371;29;20085;-77
2021/01/04 13:36:57;;;;;;;87.50;34.08;;;7.30;75.70;;;;;;4832892;29;20023;-76
2021/01/04 13:39:23;;;;;;;78.85;32.85;;;7.30;76.10;;;;;;4832637;29;20026;-76
2021/01/04 13:41:53;;;;;;;76.57;31.17;;;7.30;76.30;;;;;;4835493;29;20043;-76
2021/01/04 13:44:20;;;;;;;77.50;32.47;;;7.30;76.40;;;;;;4839711;29;20054;-75
2021/01/04 13:46:46;;;;;;;;;;;7.30;76.20;;;;;;4844610;29;20129;-77
2021/01/04 13:49:12;;;;;;;82.33;32.83;;;7.30;76.40;;;;;;4844064;29;19916;-76
2021/01/04 13:51:38;;;;;;;88.47;33.90;;;7.20;76.60;;;;;;4835418;29;20030;-76
2021/01/04 13:54:04;;;;;;;90.32;33.28;;;7.30;76.60;;;;;;4832864;29;20646;-76
2021/01/04 13:56:30;;;;;;;82.70;35.22;;;7.40;76.60;;;;;;4832718;29;20091;-75
2021/01/04 13:58:55;;;;;;;83.50;32.97;;;7.30;76.50;;;;;;4833869;29;20377;-75
2021/01/04 14:01:24;;;;;;;97.38;35.33;;;7.30;76.90;;;;;;4832700;29;20054;-76
2021/01/04 14:03:53;;;;;;;91.53;34.10;;;7.30;77.00;;;;;;4833860;29;20037;-75
2021/01/04 14:06:20;;;;;;;92.60;33.70;;;7.40;77.00;;;;;;4818990;29;20062;-76
2021/01/04 14:08:46;;;;;;;85.75;34.28;;;7.40;76.90;;;;;;4814836;29;20059;-75
2021/01/04 14:11:16;;;;;;;82.65;33.33;;;7.50;76.70;;;;;;4824905;29;20236;-76
2021/01/04 14:13:42;;;;;;;96.88;33.72;;;7.40;76.50;;;;;;4833104;29;20030;-76
2021/01/04 14:16:08;;;;;;;89.00;34.25;;;7.40;76.60;;;;;;4833100;29;20095;-76
2021/01/04 14:18:34;;;;;;;94.88;34.08;;;7.30;76.70;;;;;;4832631;29;20198;-76
2021/01/04 14:20:59;;;;;;;93.43;35.88;;;7.30;76.80;;;;;;4830318;29;20091;-75
2021/01/04 14:23:25;;;;;;;85.88;33.60;;;7.20;77.20;;;;;;4833639;29;20284;-76
2021/01/04 14:25:53;;;;;;;93.10;34.90;;;7.20;77.20;;;;;;4833326;29;20037;-76
2021/01/04 14:28:20;;;;;;;84.75;32.90;;;7.10;77.80;;;;;;4830857;29;20345;-75
2021/01/04 14:30:46;;;;;;;97.05;37.67;;;7.20;77.90;;;;;;4818447;29;20027;-76
2021/01/04 14:33:14;;;;;;;90.15;35.33;;;7.20;78.10;;;;;;4835542;29;20023;-75
2021/01/04 14:35:39;;;;;;;105.53;35.97;;;7.20;78.30;;;;;;4841037;29;20032;-75
2021/01/04 14:38:05;;;;;;;98.05;35.42;;;7.30;78.00;;;;;;4841894;29;20038;-76
2021/01/04 14:40:31;;;;;;;103.78;35.30;;;7.20;78.00;;;;;;4836932;29;20034;-76
2021/01/04 14:43:00;;;;;;;102.57;36.42;;;7.20;78.20;;;;;;4835835;29;20053;-76
2021/01/04 14:45:26;;;;;;;103.90;36.72;;;7.20;78.50;;;;;;4836480;29;20267;-76
2021/01/04 14:47:52;;;;;;;99.05;35.78;;;7.00;79.40;;;;;;4833266;29;20042;-76
2021/01/04 14:50:18;;;;;;;101.45;38.20;;;6.90;79.70;;;;;;4841476;29;20096;-76
2021/01/04 14:52:44;;;;;;;117.60;37.15;;;6.90;79.80;;;;;;4835804;29;20022;-76
2021/01/04 14:55:09;;;;;;;102.47;36.22;;;6.90;79.90;;;;;;4828035;29;20031;-76
2021/01/04 14:57:35;;;;;;;97.63;33.72;;;6.90;79.90;;;;;;4829427;29;20209;-76
2021/01/04 15:00:01;;;;;;;90.30;34.22;;;6.90;79.90;;;;;;4827867;29;20037;-76
2021/01/04 15:02:27;;;;;;;103.38;37.55;;;6.90;79.80;;;;;;4833241;29;20323;-76
2021/01/04 15:04:52;;;;;;;94.18;37.42;;;7.00;79.70;;;;;;4837644;29;20101;-76
2021/01/04 15:07:18;;;;;;;96.88;36.88;;;7.10;79.50;;;;;;4838749;29;20023;-76
2021/01/04 15:09:51;;;;;;;101.22;38.47;;;7.10;79.60;;;;;;4833824;29;20062;-76
2021/01/04 15:12:18;;;;;;;96.60;37.92;;;7.00;79.50;;;;;;4843625;29;20126;-76
2021/01/04 15:14:44;;;;;;;99.07;38.42;;;7.10;79.60;;;;;;4840052;29;20334;-76
2021/01/04 15:17:10;;;;;;;99.10;38.33;;;7.10;79.30;;;;;;4810666;29;20098;-76
2021/01/04 15:19:36;;;;;;;98.05;38.05;;;7.10;79.20;;;;;;4826332;29;20504;-76
2021/01/04 15:22:02;;;;;;;109.20;39.25;;;7.10;79.20;;;;;;4825270;29;20103;-76
2021/01/04 15:24:28;;;;;;;96.87;38.50;;;7.10;79.50;;;;;;4832428;29;20031;-76
2021/01/04 15:26:53;;;;;;;103.90;38.40;;;7.10;79.70;;;;;;4816131;29;20198;-75
2021/01/04 15:29:19;;;;;;;105.90;38.75;;;7.10;79.50;;;;;;4831256;29;20065;-76
2021/01/04 15:31:50;;;;;;;103.75;38.50;;;7.10;79.20;;;;;;4829861;29;20062;-77
2021/01/04 15:34:18;;;;;;;103.25;40.28;;;7.10;79.50;;;;;;4836228;29;20037;-76
2021/01/04 15:36:52;;;;;;;104.88;39.17;;;7.00;79.80;;;;;;4840666;29;20578;-77
2021/01/04 15:39:18;;;;;;;106.57;39.50;;;7.00;80.20;;;;;;4835430;29;20309;-76
2021/01/04 15:41:49;;;;;;;106.80;39.77;;;7.00;80.40;;;;;;4839827;29;20038;-77
2021/01/04 15:44:15;;;;;;;94.20;38.60;;;7.00;80.50;;;;;;4832252;29;20099;-77
2021/01/04 15:46:41;;;;;;;108.82;37.85;;;7.00;80.40;;;;;;4829616;29;20058;-77
2021/01/04 15:49:06;;;;;;;116.63;40.78;;;7.00;80.50;;;;;;4830749;29;20086;-77
2021/01/04 15:51:32;;;;;;;102.55;39.55;;;7.00;80.50;;;;;;4835111;29;20041;-78
2021/01/04 15:53:58;;;;;;;96.20;37.10;;;7.10;80.30;;;;;;4834717;29;20090;-78
2021/01/04 15:56:23;;;;;;;99.50;37.88;;;7.10;80.40;;;;;;4838707;29;20432;-77
2021/01/04 15:58:49;;;;;;;104.68;39.15;;;7.10;80.30;;;;;;4837654;29;20066;-77
2021/01/04 16:01:15;;;;;;;111.90;41.95;;;7.10;80.40;;;;;;4840021;29;20034;-78
2021/01/04 16:03:41;;;;;;;101.60;41.13;;;7.20;80.10;;;;;;4835956;29;20034;-78
2021/01/04 16:06:11;;;;;;;121.13;41.17;;;7.20;80.30;;;;;;4835308;29;20042;-78
2021/01/04 16:08:37;;;;;;;106.40;40.20;;;7.20;80.30;;;;;;4836333;29;20101;-77
2021/01/04 16:11:03;;;;;;;106.60;37.88;;;7.30;80.40;;;;;;4820282;29;20246;-77
2021/01/04 16:13:28;;;;;;;129.57;41.70;;;7.30;80.10;;;;;;4824226;29;20053;-78
2021/01/04 16:15:54;;;;;;;110.95;42.33;;;7.30;80.30;;;;;;4835094;29;20043;-77
2021/01/04 16:18:20;;;;;;;112.68;40.78;;;7.30;80.30;;;;;;4836192;29;20035;-78
2021/01/04 16:20:45;;;;;;;126.47;43.97;;;7.30;80.30;;;;;;4834939;29;20035;-77
2021/01/04 16:23:11;;;;;;;130.85;44.13;;;7.30;80.30;;;;;;4822007;29;20318;-77
2021/01/04 16:25:37;;;;;;;128.25;41.95;;;7.30;80.40;;;;;;4847907;29;20034;-78
2021/01/04 16:28:03;;;;;;;134.48;43.40;;;7.40;80.30;;;;;;4822860;29;20034;-77
2021/01/04 16:30:29;;;;;;;134.10;44.05;;;7.40;80.30;;;;;;4842626;29;20026;-77
2021/01/04 16:32:56;;;;;;;147.43;44.53;;;7.40;80.20;;;;;;4838996;29;20034;-77
2021/01/04 16:35:23;;;;;;;142.57;45.03;;;7.20;80.50;;;;;;4824868;29;20426;-78
2021/01/04 16:37:51;;;;;;;141.35;45.53;;;7.30;80.60;;;;;;4834038;29;20064;-77
2021/01/04 16:40:17;;;;;;;129.23;44.50;;;7.30;80.70;;;;;;4835711;29;20038;-77
2021/01/04 16:42:43;;;;;;;131.10;42.80;;;7.30;80.80;;;;;;4820494;29;20045;-77
2021/01/04 16:45:11;;;;;;;148.93;46.78;;;7.30;80.90;;;;;;4843800;29;20074;-78
2021/01/04 16:47:37;;;;;;;133.50;41.83;;;7.30;80.90;;;;;;4843368;29;20038;-77
2021/01/04 16:50:03;;;;;;;126.65;41.88;;;7.30;81.00;;;;;;4821575;29;20042;-75